Palmdale, FL (33944)

5:48 PM EDT on May 29, 2017 (GMT -0400)
Imperial Grove | | Change Station
Active Advisory: Fire Weather Warning

Elev 164 ft 27.12 °N, 81.33 °W | Updated 3 minutes ago

Clear
Clear
97.0 °F
Feels Like 101 °F
N
3.0
Wind Variable Wind from North
Gusts 14.0 mph

Today
High -- | Low -- °F
--% Chance of Precip.
Yesterday
High -- | Low -- °F
Precip. -- in
Pressure 30.01 in
Visibility 10.0 miles
Clouds Clear
Heat Index 101 °F
Dew Point 66 °F
Humidity 37%
Rainfall 0.00 in
Snow Depth Not available.
6:31 AM 8:13 PM
Waxing Crescent, 23% visible
METAR KOBE 292135Z AUTO 16006KT 10SM CLR 33/21 A3001 RMK AO2 LTG DSNT S
Pressure 30.01 in
Visibility 10.0 miles
Clouds Clear
Heat Index 101 °F
Dew Point 66 °F
Humidity 37%
Rainfall 0.00 in
Snow Depth Not available.
6:31 AM 8:13 PM
Waxing Crescent, 23% visible
METAR KOBE 292135Z AUTO 16006KT 10SM CLR 33/21 A3001 RMK AO2 LTG DSNT S

Get Your Daily Forecast Email!

Thanks for signing up!

Be on the lookout for a verification email in your inbox.

You'll start receiving severe weather alerts in your inbox..

×

10-Day Weather Forecast

Almanac

Astronomy

May. 29, 2017 Rise Set
Actual Time
Civil Twilight
Nautical Twilight
Astronomical Twilight
Moon
Length of Visible Light
Length of Day
Tomorrow will be .
, % of the Moon is Illuminated

Today's Extremes

State Highs State Lows

Community

WunderPhotos

Category 6

Welcome to Category 6. This is the collective home for Weather Underground's featured writeups by Dr. Jeff Masters (right), Bob Henson (left), Chris Burt, and other regular contributors.

Nearby

Air Quality

  Air Quality AQ Index Pollutant
Not available.

Snow Depth

Station Depth Elevation

Earthquake Activity

City Distance Mag. Time & Date
Minimum magnitude displayed is 2.5.

Coastal Water Temperatures

Place Temperature

Stations

Nearby Weather Stations

Station Location Temp. Windchill Dew Point Humidity Wind Precip. Elev Updated Type
                   

Watches & Warnings

Fire Weather Warning
Issued: 4:05 PM EDT May. 29, 2017 – National Weather Service

... Red flag warning remains in effect until 8 PM EDT this evening
for low relative humidity for fire weather zone 063...

* affected area... fire weather zones 063.

* Wind... variable around 5 mph

* humidity... 35 to 40 percent

* impacts... any fires that develop will likely see extreme fire
behavior. Outdoor burning is not recommended.